createdAt,value
2023-01-21T00:01:10.972Z,15.40
2023-01-21T00:03:39.116Z,14.87
2023-01-21T00:06:07.266Z,14.67
2023-01-21T00:08:36.301Z,21.43
2023-01-21T00:11:07.567Z,20.13
2023-01-21T00:13:35.969Z,18.87
2023-01-21T00:16:04.142Z,16.10
2023-01-21T00:18:31.845Z,16.00
2023-01-21T00:20:59.432Z,15.40
2023-01-21T00:23:27.084Z,16.83
2023-01-21T00:25:59.934Z,14.80
2023-01-21T00:28:29.582Z,15.63
2023-01-21T00:31:00.165Z,15.40
2023-01-21T00:33:27.888Z,16.53
2023-01-21T00:36:00.741Z,14.77
2023-01-21T00:38:28.361Z,14.07
2023-01-21T00:41:02.214Z,16.90
2023-01-21T00:43:29.979Z,16.47
2023-01-21T00:45:58.026Z,17.40
2023-01-21T00:48:25.876Z,17.20
2023-01-21T00:50:56.012Z,20.67
2023-01-21T00:53:24.121Z,18.90
2023-01-21T00:55:51.797Z,15.77
2023-01-21T00:58:21.008Z,15.60
2023-01-21T01:00:48.757Z,14.53
2023-01-21T01:03:16.367Z,14.37
2023-01-21T01:05:43.920Z,16.07
2023-01-21T01:08:11.525Z,16.47
2023-01-21T01:10:39.151Z,15.77
2023-01-21T01:13:06.741Z,15.17
2023-01-21T01:15:35.706Z,14.33
2023-01-21T01:18:03.325Z,14.73
2023-01-21T01:20:30.912Z,13.43
2023-01-21T01:22:58.540Z,14.77
2023-01-21T01:25:26.202Z,16.43
2023-01-21T01:27:53.786Z,13.73
2023-01-21T01:30:21.520Z,13.63
2023-01-21T01:32:50.425Z,13.83
2023-01-21T01:35:18.050Z,13.53
2023-01-21T01:37:45.644Z,11.87
2023-01-21T01:40:14.317Z,13.83
2023-01-21T01:42:42.050Z,14.87
2023-01-21T01:45:18.593Z,13.50
2023-01-21T01:47:48.508Z,16.07
2023-01-21T01:50:20.255Z,12.23
2023-01-21T01:52:48.293Z,13.97
2023-01-21T01:55:16.323Z,15.23
2023-01-21T01:57:47.027Z,13.70
2023-01-21T02:00:15.647Z,16.00
2023-01-21T02:03:04.666Z,15.53
2023-01-21T02:05:34.721Z,13.50
2023-01-21T02:08:03.032Z,15.47
2023-01-21T02:10:31.773Z,14.50
2023-01-21T02:12:59.352Z,14.33
2023-01-21T02:15:30.472Z,13.40
2023-01-21T02:18:04.861Z,16.83
2023-01-21T02:20:57.439Z,14.03
2023-01-21T02:23:32.614Z,13.20
2023-01-21T02:26:33.195Z,12.53
2023-01-21T02:29:14.324Z,17.00
2023-01-21T02:32:19.472Z,13.90
2023-01-21T02:34:51.723Z,16.07
2023-01-21T02:37:25.860Z,13.13
2023-01-21T02:40:13.308Z,17.17
2023-01-21T02:42:44.926Z,17.83
2023-01-21T02:45:20.395Z,28.47
2023-01-21T02:47:53.211Z,19.73
2023-01-21T02:50:24.573Z,17.47
2023-01-21T02:52:58.729Z,15.27
2023-01-21T02:55:30.295Z,15.17
2023-01-21T02:58:00.340Z,14.43
2023-01-21T03:00:30.316Z,14.10
2023-01-21T03:03:16.464Z,13.70
2023-01-21T03:05:58.034Z,16.83
2023-01-21T03:08:31.977Z,17.93
2023-01-21T03:11:05.473Z,15.27
2023-01-21T03:13:53.454Z,18.17
2023-01-21T03:16:41.733Z,21.43
2023-01-21T03:19:15.003Z,12.33
2023-01-21T03:21:43.979Z,13.03
2023-01-21T03:24:12.490Z,15.40
2023-01-21T03:26:43.730Z,14.80
2023-01-21T03:29:15.114Z,14.20
2023-01-21T03:31:45.346Z,14.33
2023-01-21T03:34:14.827Z,17.70
2023-01-21T03:36:46.257Z,16.93
2023-01-21T03:39:17.332Z,15.03
2023-01-21T03:41:44.996Z,13.40
2023-01-21T03:44:12.656Z,14.40
2023-01-21T03:46:44.201Z,13.60
2023-01-21T03:49:16.856Z,14.20
2023-01-21T03:51:48.855Z,14.03
2023-01-21T03:54:16.560Z,15.43
2023-01-21T03:56:44.177Z,14.00
2023-01-21T03:59:12.636Z,17.10
2023-01-21T04:01:41.735Z,18.17
2023-01-21T04:04:10.543Z,14.23
2023-01-21T04:06:38.116Z,13.17
2023-01-21T04:09:07.565Z,16.50
2023-01-21T04:11:35.382Z,14.30
2023-01-21T04:14:03.005Z,12.77
2023-01-21T04:16:30.694Z,13.60
2023-01-21T04:18:58.361Z,15.70
2023-01-21T04:21:25.955Z,13.33
2023-01-21T04:23:53.515Z,13.93
2023-01-21T04:26:22.452Z,12.03
2023-01-21T04:28:50.087Z,13.90
2023-01-21T04:31:18.066Z,12.57
2023-01-21T04:33:45.725Z,14.67
2023-01-21T04:36:14.596Z,12.63
2023-01-21T04:38:42.412Z,15.27
2023-01-21T04:41:09.991Z,13.20
2023-01-21T04:43:38.888Z,17.83
2023-01-21T04:46:06.981Z,16.27
2023-01-21T04:48:34.565Z,13.80
2023-01-21T04:51:02.339Z,16.27
2023-01-21T04:53:30.035Z,17.20
2023-01-21T04:55:57.826Z,15.43
2023-01-21T04:58:26.605Z,16.00
2023-01-21T05:00:56.904Z,16.30
2023-01-21T05:03:24.620Z,14.40
2023-01-21T05:05:52.219Z,14.63
2023-01-21T05:08:19.809Z,15.00
2023-01-21T05:10:47.485Z,16.03
2023-01-21T05:13:15.041Z,15.43
2023-01-21T05:15:42.667Z,16.73
2023-01-21T05:18:11.625Z,17.67
2023-01-21T05:20:39.169Z,18.00
2023-01-21T05:23:06.811Z,21.40
2023-01-21T05:25:34.412Z,19.60
2023-01-21T05:28:02.036Z,16.67
2023-01-21T05:30:29.650Z,16.83
2023-01-21T05:32:57.419Z,17.73
2023-01-21T05:35:26.442Z,16.00
2023-01-21T05:37:54.963Z,15.30
2023-01-21T05:40:22.769Z,14.87
2023-01-21T05:42:50.379Z,15.50
2023-01-21T05:45:18.085Z,19.23
2023-01-21T05:47:45.713Z,17.70
2023-01-21T05:50:13.654Z,16.92
2023-01-21T05:52:43.202Z,15.37
2023-01-21T05:55:11.094Z,15.43
2023-01-21T05:57:38.702Z,13.07
2023-01-21T06:00:07.512Z,17.83
2023-01-21T06:02:35.115Z,16.63
2023-01-21T06:05:02.780Z,17.77
2023-01-21T06:07:30.411Z,18.13
2023-01-21T06:09:59.332Z,14.87
2023-01-21T06:12:26.948Z,17.73
2023-01-21T06:14:54.733Z,16.53
2023-01-21T06:17:22.308Z,15.37
2023-01-21T06:19:50.093Z,13.80
2023-01-21T06:22:18.229Z,17.60
2023-01-21T06:24:46.284Z,18.53
2023-01-21T06:27:15.206Z,17.10
2023-01-21T06:29:42.819Z,13.07
2023-01-21T06:32:10.523Z,14.33
2023-01-21T06:34:38.230Z,17.77
2023-01-21T06:37:05.901Z,12.93
2023-01-21T06:39:33.474Z,14.63
2023-01-21T06:42:01.090Z,17.07
2023-01-21T06:44:30.052Z,12.67
2023-01-21T06:47:01.545Z,13.77
2023-01-21T06:49:29.552Z,16.10
2023-01-21T06:51:57.388Z,12.93
2023-01-21T06:54:24.961Z,13.47
2023-01-21T06:56:52.537Z,15.67
2023-01-21T06:59:20.411Z,16.53
2023-01-21T07:01:49.465Z,15.33
2023-01-21T07:04:17.174Z,14.03
2023-01-21T07:06:44.741Z,13.23
2023-01-21T07:09:12.392Z,15.23
2023-01-21T07:11:39.940Z,15.20
2023-01-21T07:14:07.589Z,15.73
2023-01-21T07:16:35.204Z,14.87
2023-01-21T07:19:04.286Z,17.67
2023-01-21T07:21:31.913Z,16.63
2023-01-21T07:24:00.539Z,15.27
2023-01-21T07:26:28.145Z,13.37
2023-01-21T07:28:55.743Z,13.33
2023-01-21T07:31:23.403Z,17.10
2023-01-21T07:33:51.043Z,15.13
2023-01-21T07:36:19.991Z,14.47
2023-01-21T07:38:47.570Z,16.60
2023-01-21T07:41:15.169Z,15.47
2023-01-21T07:43:42.774Z,14.53
2023-01-21T07:46:10.474Z,12.73
2023-01-21T07:48:38.094Z,11.43
2023-01-21T07:51:05.888Z,12.70
2023-01-21T07:53:34.854Z,13.83
2023-01-21T07:56:04.780Z,14.50
2023-01-21T07:58:32.454Z,12.53
2023-01-21T08:01:00.104Z,13.17
2023-01-21T08:03:27.705Z,14.17
2023-01-21T08:05:55.291Z,14.33
2023-01-21T08:08:22.873Z,16.53
2023-01-21T08:10:53.746Z,14.60
2023-01-21T08:13:21.669Z,13.90
2023-01-21T08:15:50.830Z,14.87
2023-01-21T08:18:18.973Z,12.17
2023-01-21T08:20:46.545Z,12.50
2023-01-21T08:23:14.136Z,10.90
2023-01-21T08:25:41.793Z,12.83
2023-01-21T08:28:10.741Z,13.80
2023-01-21T08:30:38.398Z,12.37
2023-01-21T08:33:06.573Z,13.57
2023-01-21T08:35:34.838Z,11.60
2023-01-21T08:38:02.484Z,13.40
2023-01-21T08:40:30.169Z,13.30
2023-01-21T08:43:01.234Z,13.33
2023-01-21T08:45:30.556Z,13.30
2023-01-21T08:47:58.163Z,13.23
2023-01-21T08:50:25.889Z,11.00
2023-01-21T08:52:54.037Z,13.27
2023-01-21T08:55:21.938Z,14.50
2023-01-21T08:57:52.040Z,13.53
2023-01-21T09:00:20.780Z,12.30
2023-01-21T09:02:51.608Z,12.90
2023-01-21T09:05:20.199Z,14.60
2023-01-21T09:07:47.882Z,13.37
2023-01-21T09:10:37.415Z,12.00
2023-01-21T09:13:06.063Z,14.97
2023-01-21T09:15:38.824Z,11.20
2023-01-21T09:18:08.133Z,11.60
2023-01-21T09:20:36.094Z,12.00
2023-01-21T09:23:23.834Z,11.83
2023-01-21T09:25:51.699Z,14.53
2023-01-21T09:28:19.980Z,13.63
2023-01-21T09:30:47.719Z,13.27
2023-01-21T09:33:16.955Z,12.60
2023-01-21T09:35:44.564Z,12.60
2023-01-21T09:38:12.870Z,11.10
2023-01-21T09:40:45.917Z,14.27
2023-01-21T09:43:16.612Z,10.93
2023-01-21T09:45:44.978Z,13.13
2023-01-21T09:48:21.220Z,11.70
2023-01-21T09:50:50.849Z,13.67
2023-01-21T09:53:26.381Z,11.87
2023-01-21T09:55:54.583Z,15.00
2023-01-21T09:58:25.076Z,12.50
2023-01-21T10:00:54.377Z,14.03
2023-01-21T10:03:30.636Z,11.80
2023-01-21T10:06:08.483Z,13.20
2023-01-21T10:08:44.751Z,12.13
2023-01-21T10:11:24.145Z,14.23
2023-01-21T10:14:07.867Z,14.83
2023-01-21T10:16:40.823Z,12.93
2023-01-21T10:19:12.666Z,12.57
2023-01-21T10:21:44.067Z,11.20
2023-01-21T10:24:14.186Z,12.67
2023-01-21T10:26:42.829Z,11.20
2023-01-21T10:29:15.618Z,11.93
2023-01-21T10:31:45.756Z,11.77
2023-01-21T10:34:15.594Z,10.73
2023-01-21T10:37:07.163Z,10.60
2023-01-21T10:39:45.243Z,11.40
2023-01-21T10:42:25.571Z,11.40
2023-01-21T10:44:58.968Z,11.77
2023-01-21T10:47:34.044Z,9.17
2023-01-21T10:50:05.034Z,10.93
2023-01-21T10:52:38.728Z,9.77
2023-01-21T10:55:17.472Z,9.60
2023-01-21T10:57:56.093Z,9.23
2023-01-21T11:00:26.043Z,10.03
2023-01-21T11:02:56.084Z,9.13
2023-01-21T11:05:25.657Z,8.17
2023-01-21T11:07:53.848Z,8.20
2023-01-21T11:10:23.715Z,7.17
2023-01-21T11:12:52.380Z,6.83
2023-01-21T11:15:21.389Z,7.03
2023-01-21T11:17:50.644Z,8.03
2023-01-21T11:20:22.762Z,7.90
2023-01-21T11:22:52.091Z,6.80
2023-01-21T11:25:27.155Z,6.80
2023-01-21T11:27:54.845Z,6.63
2023-01-21T11:30:50.116Z,7.40
2023-01-21T11:33:25.794Z,7.20
2023-01-21T11:35:54.383Z,7.50
2023-01-21T11:38:33.849Z,8.00
2023-01-21T11:41:03.887Z,7.80
2023-01-21T11:43:36.915Z,8.57
2023-01-21T11:46:27.780Z,7.37
2023-01-21T11:48:56.856Z,6.83
2023-01-21T11:51:24.551Z,7.30
2023-01-21T11:56:54.772Z,5.70
2023-01-21T11:59:26.253Z,5.60
2023-01-21T12:01:57.116Z,8.93
2023-01-21T12:04:25.829Z,7.23
2023-01-21T12:06:58.020Z,6.37
2023-01-21T12:09:27.339Z,5.10
2023-01-21T12:12:30.341Z,5.80
2023-01-21T12:15:00.037Z,5.80
2023-01-21T12:17:42.566Z,6.23
2023-01-21T12:20:22.631Z,5.97
2023-01-21T12:23:17.959Z,6.37
2023-01-21T12:25:49.369Z,5.70
2023-01-21T12:28:34.725Z,5.33
2023-01-21T12:31:09.751Z,6.00
2023-01-21T12:33:44.843Z,5.50
2023-01-21T12:36:16.872Z,5.23
2023-01-21T12:38:47.350Z,6.37
2023-01-21T12:41:17.696Z,4.87
2023-01-21T12:43:48.703Z,5.47
2023-01-21T12:46:18.444Z,4.80
2023-01-21T12:48:49.813Z,5.90
2023-01-21T12:51:22.832Z,5.03
2023-01-21T12:53:54.291Z,4.73
2023-01-21T12:56:27.110Z,5.63
2023-01-21T12:58:59.380Z,5.77
2023-01-21T13:01:47.987Z,6.20
2023-01-21T13:04:29.989Z,6.53
2023-01-21T13:07:01.923Z,6.50
2023-01-21T13:09:36.762Z,4.87
2023-01-21T13:12:06.003Z,5.33
2023-01-21T13:14:38.965Z,5.17
2023-01-21T13:17:13.885Z,6.97
2023-01-21T13:19:41.623Z,7.50
2023-01-21T13:22:19.728Z,5.87
2023-01-21T13:25:02.684Z,5.57
2023-01-21T13:27:34.198Z,6.13
2023-01-21T13:30:05.253Z,8.10
2023-01-21T13:32:38.565Z,6.10
2023-01-21T13:35:20.423Z,5.87
2023-01-21T13:37:55.936Z,7.83
2023-01-21T13:40:32.598Z,6.20
2023-01-21T13:43:07.059Z,7.23
2023-01-21T13:45:46.282Z,7.03
2023-01-21T13:48:24.341Z,7.93
2023-01-21T13:51:04.473Z,7.13
2023-01-21T13:53:47.468Z,6.43
2023-01-21T13:56:26.227Z,6.83
2023-01-21T13:58:58.630Z,6.63
2023-01-21T14:01:30.785Z,7.07
2023-01-21T14:04:03.379Z,5.60
2023-01-21T14:06:35.007Z,5.70
2023-01-21T14:09:05.893Z,6.93
2023-01-21T14:11:37.745Z,6.03
2023-01-21T14:14:40.732Z,5.93
2023-01-21T14:17:26.390Z,7.17
2023-01-21T14:20:12.260Z,7.77
2023-01-21T14:22:54.964Z,5.97
2023-01-21T14:25:31.653Z,6.37
2023-01-21T14:28:07.597Z,6.87
2023-01-21T14:30:41.391Z,7.53
2023-01-21T14:33:14.183Z,8.23
2023-01-21T14:35:44.835Z,11.63
2023-01-21T14:38:22.963Z,6.03
2023-01-21T14:40:51.821Z,6.53
2023-01-21T14:43:20.867Z,6.70
2023-01-21T14:45:52.932Z,5.70
2023-01-21T14:48:33.257Z,6.13
2023-01-21T14:51:11.416Z,6.60
2023-01-21T14:53:45.239Z,6.57
2023-01-21T14:56:20.400Z,7.00
2023-01-21T14:58:49.187Z,7.53
2023-01-21T15:01:28.716Z,6.33
2023-01-21T15:03:58.824Z,6.00
2023-01-21T15:06:26.931Z,7.07
2023-01-21T15:08:59.101Z,7.20
2023-01-21T15:11:31.406Z,5.87
2023-01-21T15:14:07.380Z,6.33
2023-01-21T15:16:37.206Z,6.47
2023-01-21T15:19:24.217Z,5.83
2023-01-21T15:22:21.866Z,6.00
2023-01-21T15:25:26.954Z,5.60
2023-01-21T15:28:38.529Z,6.50
2023-01-21T15:31:08.698Z,5.90
2023-01-21T15:33:57.836Z,5.73
2023-01-21T15:36:29.120Z,5.53
2023-01-21T15:39:01.981Z,5.40
2023-01-21T15:41:38.548Z,5.73
2023-01-21T15:44:20.105Z,7.40
2023-01-21T15:46:53.988Z,16.00
2023-01-21T15:49:51.871Z,9.60
2023-01-21T15:52:31.475Z,6.07
2023-01-21T15:55:09.628Z,5.60
2023-01-21T15:57:44.521Z,6.70
2023-01-21T16:00:24.125Z,6.53
2023-01-21T16:02:57.380Z,6.47
2023-01-21T16:05:32.309Z,5.80
2023-01-21T16:08:11.238Z,6.40
2023-01-21T16:10:45.104Z,9.53
2023-01-21T16:13:17.295Z,11.87
2023-01-21T16:15:54.103Z,6.80
2023-01-21T16:18:29.722Z,7.90
2023-01-21T16:20:58.943Z,6.50
2023-01-21T16:23:32.680Z,5.83
2023-01-21T16:26:00.377Z,5.93
2023-01-21T16:28:41.469Z,8.57
2023-01-21T16:31:09.991Z,6.97
2023-01-21T16:33:37.732Z,7.37
2023-01-21T16:36:07.663Z,6.43
2023-01-21T16:38:38.302Z,6.20
2023-01-21T16:41:27.526Z,6.17
2023-01-21T16:43:57.834Z,6.87
2023-01-21T16:46:27.707Z,6.30
2023-01-21T16:48:57.350Z,6.35
2023-01-21T16:51:29.752Z,7.77
2023-01-21T16:54:27.164Z,6.03
2023-01-21T16:56:57.723Z,6.43
2023-01-21T16:59:28.673Z,5.73
2023-01-21T17:01:57.273Z,5.63
2023-01-21T17:04:25.075Z,6.33
2023-01-21T17:06:54.030Z,6.03
2023-01-21T17:09:29.752Z,5.57
2023-01-21T17:11:58.328Z,5.40
2023-01-21T17:14:28.965Z,5.93
2023-01-21T17:16:58.039Z,6.95
2023-01-21T17:19:31.248Z,7.20
2023-01-21T17:22:01.481Z,6.27
2023-01-21T17:24:33.958Z,5.87
2023-01-21T17:27:03.976Z,6.53
2023-01-21T17:29:32.640Z,7.43
2023-01-21T17:32:01.998Z,7.13
2023-01-21T17:34:30.979Z,6.53
2023-01-21T17:36:58.995Z,6.07
2023-01-21T17:40:00.967Z,7.50
2023-01-21T17:42:40.771Z,7.10
2023-01-21T17:45:19.403Z,6.87
2023-01-21T17:48:07.880Z,7.00
2023-01-21T17:50:36.450Z,5.90
2023-01-21T17:53:07.049Z,8.80
2023-01-21T17:55:37.870Z,8.43
2023-01-21T17:58:06.965Z,8.13
2023-01-21T18:00:42.585Z,7.60
2023-01-21T18:03:10.840Z,10.17
2023-01-21T18:05:39.508Z,8.00
2023-01-21T18:08:13.290Z,7.57
2023-01-21T18:10:42.357Z,9.17
2023-01-21T18:13:12.540Z,8.00
2023-01-21T18:15:41.250Z,8.47
2023-01-21T18:18:15.314Z,8.87
2023-01-21T18:20:42.889Z,8.67
2023-01-21T18:23:11.842Z,8.80
2023-01-21T18:25:39.661Z,8.50
2023-01-21T18:28:17.776Z,9.83
2023-01-21T18:30:45.434Z,10.40
2023-01-21T18:33:13.666Z,9.87
2023-01-21T18:35:44.489Z,11.83
2023-01-21T18:38:12.710Z,12.33
2023-01-21T18:40:41.177Z,11.77
2023-01-21T18:43:10.118Z,11.33
2023-01-21T18:45:37.924Z,9.43
2023-01-21T18:48:07.412Z,9.20
2023-01-21T18:50:34.961Z,8.63
2023-01-21T18:53:02.457Z,9.20
2023-01-21T18:55:30.306Z,10.13
2023-01-21T18:57:57.974Z,11.57
2023-01-21T19:00:28.473Z,12.33
2023-01-21T19:02:57.222Z,10.20
2023-01-21T19:05:28.019Z,10.43
2023-01-21T19:07:55.557Z,12.27
2023-01-21T19:10:23.340Z,11.20
2023-01-21T19:12:51.027Z,11.93
2023-01-21T19:15:20.467Z,11.73
2023-01-21T19:17:49.963Z,10.97
2023-01-21T19:20:19.074Z,12.43
2023-01-21T19:22:47.090Z,11.17
2023-01-21T19:25:16.034Z,11.57
2023-01-21T19:27:45.623Z,11.67
2023-01-21T19:30:19.581Z,10.93
2023-01-21T19:32:49.196Z,10.37
2023-01-21T19:35:17.334Z,12.03
2023-01-21T19:37:49.229Z,11.20
2023-01-21T19:40:19.642Z,12.03
2023-01-21T19:42:47.726Z,11.97
2023-01-21T19:45:16.455Z,12.53
2023-01-21T19:47:45.375Z,12.30
2023-01-21T19:50:16.696Z,12.77
2023-01-21T19:52:44.811Z,12.17
2023-01-21T19:55:15.057Z,11.67
2023-01-21T19:57:42.886Z,11.87
2023-01-21T20:00:19.771Z,11.97
2023-01-21T20:02:47.485Z,12.07
2023-01-21T20:05:16.935Z,12.00
2023-01-21T20:07:45.733Z,13.53
2023-01-21T20:10:15.033Z,12.30
2023-01-21T20:12:43.824Z,12.23
2023-01-21T20:15:12.348Z,11.23
2023-01-21T20:17:41.209Z,10.80
2023-01-21T20:20:17.447Z,10.97
2023-01-21T20:22:45.153Z,12.50
2023-01-21T20:25:16.603Z,13.23
2023-01-21T20:27:45.650Z,11.37
2023-01-21T20:30:20.109Z,9.30
2023-01-21T20:32:48.220Z,10.50
2023-01-21T20:35:18.495Z,11.30
2023-01-21T20:37:48.932Z,10.30
2023-01-21T20:40:19.225Z,10.03
2023-01-21T20:42:47.331Z,10.57
2023-01-21T20:45:16.097Z,10.53
2023-01-21T20:47:50.102Z,11.50
2023-01-21T20:50:21.739Z,10.60
2023-01-21T20:52:51.698Z,10.73
2023-01-21T20:55:21.321Z,9.47
2023-01-21T20:57:49.247Z,9.70
2023-01-21T21:00:18.304Z,10.13
2023-01-21T21:02:45.865Z,10.20
2023-01-21T21:05:14.143Z,11.43
2023-01-21T21:07:43.074Z,10.07
2023-01-21T21:10:19.948Z,9.77
2023-01-21T21:12:47.776Z,11.23
2023-01-21T21:15:16.096Z,10.80
2023-01-21T21:17:44.592Z,10.67
2023-01-21T21:20:19.142Z,10.70
2023-01-21T21:22:48.508Z,11.47
2023-01-21T21:25:17.339Z,11.30
2023-01-21T21:27:45.572Z,11.67
2023-01-21T21:30:18.560Z,10.80
2023-01-21T21:32:46.306Z,10.80
2023-01-21T21:35:22.574Z,11.13
2023-01-21T21:37:51.661Z,10.27
2023-01-21T21:40:19.722Z,11.97
2023-01-21T21:43:05.215Z,9.63
2023-01-21T21:45:32.871Z,16.90
2023-01-21T21:48:17.891Z,13.40
2023-01-21T21:50:45.595Z,12.07
2023-01-21T21:53:14.452Z,11.73
2023-01-21T21:55:41.968Z,9.50
2023-01-21T21:58:09.505Z,10.67
2023-01-21T22:00:37.039Z,10.37
2023-01-21T22:03:05.376Z,10.47
2023-01-21T22:05:35.397Z,9.80
2023-01-21T22:08:03.636Z,10.80
2023-01-21T22:10:32.530Z,11.00
2023-01-21T22:13:00.061Z,10.63
2023-01-21T22:15:27.580Z,10.13
2023-01-21T22:17:55.092Z,13.37
2023-01-21T22:20:22.934Z,11.93
2023-01-21T22:22:50.475Z,9.03
2023-01-21T22:25:18.218Z,10.17
2023-01-21T22:27:47.225Z,9.57
2023-01-21T22:30:15.395Z,9.77
2023-01-21T22:32:42.916Z,8.60
2023-01-21T22:35:10.799Z,9.93
2023-01-21T22:37:38.323Z,10.03
2023-01-21T22:40:07.178Z,8.43
2023-01-21T22:42:34.738Z,10.80
2023-01-21T22:45:05.210Z,9.40
2023-01-21T22:47:34.826Z,10.17
2023-01-21T22:50:02.369Z,9.70
2023-01-21T22:52:29.917Z,8.80
2023-01-21T22:54:57.496Z,9.23
2023-01-21T22:57:25.053Z,9.83
2023-01-21T22:59:52.570Z,9.23
2023-01-21T23:02:22.132Z,9.00
2023-01-21T23:04:49.669Z,8.40
2023-01-21T23:07:17.242Z,9.10
2023-01-21T23:09:44.732Z,8.67
2023-01-21T23:12:18.763Z,8.60
2023-01-21T23:14:46.476Z,8.37
2023-01-21T23:17:14.404Z,9.40
2023-01-21T23:19:43.674Z,10.33
2023-01-21T23:22:11.210Z,9.33
2023-01-21T23:24:38.844Z,9.40
2023-01-21T23:27:06.556Z,8.93
2023-01-21T23:29:34.317Z,9.40
2023-01-21T23:32:02.000Z,9.27
2023-01-21T23:34:29.592Z,8.47
2023-01-21T23:36:58.450Z,8.90
2023-01-21T23:39:25.974Z,8.73
2023-01-21T23:41:54.890Z,7.97
2023-01-21T23:44:25.296Z,10.27
2023-01-21T23:46:53.370Z,9.30
2023-01-21T23:49:21.256Z,8.13
2023-01-21T23:51:48.930Z,7.67
2023-01-21T23:54:17.787Z,8.97
2023-01-21T23:56:45.386Z,8.30
2023-01-21T23:59:12.915Z,7.97
